sensor_id;sensor_type;location;lat;lon;timestamp;P1;durP1;ratioP1;P2;durP2;ratioP2
30149;SDS011;16962;48.646;9.026;2023-04-06T00:02:12;21.63;;;12.95;;
30149;SDS011;16962;48.646;9.026;2023-04-06T00:05:00;18.95;;;12.25;;
30149;SDS011;16962;48.646;9.026;2023-04-06T00:07:47;18.35;;;11.15;;
30149;SDS011;16962;48.646;9.026;2023-04-06T00:10:36;17.98;;;11.98;;
30149;SDS011;16962;48.646;9.026;2023-04-06T00:13:24;24.00;;;14.60;;
30149;SDS011;16962;48.646;9.026;2023-04-06T00:16:12;27.13;;;14.93;;
30149;SDS011;16962;48.646;9.026;2023-04-06T00:19:00;25.80;;;14.38;;
30149;SDS011;16962;48.646;9.026;2023-04-06T00:21:47;23.95;;;14.23;;
30149;SDS011;16962;48.646;9.026;2023-04-06T00:24:35;25.52;;;15.63;;
30149;SDS011;16962;48.646;9.026;2023-04-06T00:27:23;26.02;;;14.80;;
30149;SDS011;16962;48.646;9.026;2023-04-06T00:30:11;27.88;;;14.95;;
30149;SDS011;16962;48.646;9.026;2023-04-06T00:32:58;24.80;;;13.60;;
30149;SDS011;16962;48.646;9.026;2023-04-06T00:35:48;23.27;;;14.50;;
30149;SDS011;16962;48.646;9.026;2023-04-06T00:38:42;22.77;;;14.38;;
30149;SDS011;16962;48.646;9.026;2023-04-06T00:41:32;22.65;;;13.35;;
30149;SDS011;16962;48.646;9.026;2023-04-06T00:44:20;21.45;;;13.35;;
30149;SDS011;16962;48.646;9.026;2023-04-06T00:47:08;19.45;;;11.48;;
30149;SDS011;16962;48.646;9.026;2023-04-06T00:49:56;21.50;;;13.93;;
30149;SDS011;16962;48.646;9.026;2023-04-06T00:52:44;27.77;;;13.05;;
30149;SDS011;16962;48.646;9.026;2023-04-06T00:55:31;26.15;;;15.82;;
30149;SDS011;16962;48.646;9.026;2023-04-06T00:58:18;20.55;;;12.48;;
30149;SDS011;16962;48.646;9.026;2023-04-06T01:01:06;21.58;;;12.95;;
30149;SDS011;16962;48.646;9.026;2023-04-06T01:03:53;19.10;;;11.63;;
30149;SDS011;16962;48.646;9.026;2023-04-06T01:06:42;23.77;;;12.15;;
30149;SDS011;16962;48.646;9.026;2023-04-06T01:09:29;19.08;;;11.88;;
30149;SDS011;16962;48.646;9.026;2023-04-06T01:12:17;20.33;;;12.27;;
30149;SDS011;16962;48.646;9.026;2023-04-06T01:15:05;28.90;;;13.60;;
30149;SDS011;16962;48.646;9.026;2023-04-06T01:17:53;24.50;;;13.77;;
30149;SDS011;16962;48.646;9.026;2023-04-06T01:20:41;25.40;;;13.43;;
30149;SDS011;16962;48.646;9.026;2023-04-06T01:23:30;24.98;;;12.70;;
30149;SDS011;16962;48.646;9.026;2023-04-06T01:26:17;17.25;;;11.32;;
30149;SDS011;16962;48.646;9.026;2023-04-06T01:29:05;24.90;;;11.13;;
30149;SDS011;16962;48.646;9.026;2023-04-06T01:31:52;21.23;;;12.93;;
30149;SDS011;16962;48.646;9.026;2023-04-06T01:34:40;22.63;;;12.23;;
30149;SDS011;16962;48.646;9.026;2023-04-06T01:37:27;16.77;;;11.40;;
30149;SDS011;16962;48.646;9.026;2023-04-06T01:40:19;17.63;;;11.75;;
30149;SDS011;16962;48.646;9.026;2023-04-06T01:43:07;21.25;;;13.35;;
30149;SDS011;16962;48.646;9.026;2023-04-06T01:45:54;22.95;;;13.25;;
30149;SDS011;16962;48.646;9.026;2023-04-06T01:48:44;21.67;;;13.13;;
30149;SDS011;16962;48.646;9.026;2023-04-06T01:51:32;17.60;;;12.20;;
30149;SDS011;16962;48.646;9.026;2023-04-06T01:54:19;22.27;;;12.10;;
30149;SDS011;16962;48.646;9.026;2023-04-06T01:57:13;18.67;;;12.63;;
30149;SDS011;16962;48.646;9.026;2023-04-06T02:00:00;19.60;;;12.65;;
30149;SDS011;16962;48.646;9.026;2023-04-06T02:02:48;21.17;;;12.95;;
30149;SDS011;16962;48.646;9.026;2023-04-06T02:05:35;18.83;;;12.00;;
30149;SDS011;16962;48.646;9.026;2023-04-06T02:08:24;22.40;;;13.35;;
30149;SDS011;16962;48.646;9.026;2023-04-06T02:11:17;19.00;;;12.20;;
30149;SDS011;16962;48.646;9.026;2023-04-06T02:14:04;26.23;;;12.30;;
30149;SDS011;16962;48.646;9.026;2023-04-06T02:16:53;18.95;;;12.30;;
30149;SDS011;16962;48.646;9.026;2023-04-06T02:19:44;20.70;;;12.38;;
30149;SDS011;16962;48.646;9.026;2023-04-06T02:22:47;18.17;;;12.15;;
30149;SDS011;16962;48.646;9.026;2023-04-06T02:25:35;23.10;;;13.23;;
30149;SDS011;16962;48.646;9.026;2023-04-06T02:28:22;24.52;;;14.27;;
30149;SDS011;16962;48.646;9.026;2023-04-06T02:31:09;22.23;;;14.20;;
30149;SDS011;16962;48.646;9.026;2023-04-06T02:33:58;25.77;;;14.23;;
30149;SDS011;16962;48.646;9.026;2023-04-06T02:36:47;26.42;;;14.65;;
30149;SDS011;16962;48.646;9.026;2023-04-06T02:39:35;25.98;;;14.98;;
30149;SDS011;16962;48.646;9.026;2023-04-06T02:42:25;23.58;;;13.63;;
30149;SDS011;16962;48.646;9.026;2023-04-06T02:45:16;23.55;;;13.45;;
30149;SDS011;16962;48.646;9.026;2023-04-06T02:48:03;23.20;;;13.68;;
30149;SDS011;16962;48.646;9.026;2023-04-06T02:50:58;24.65;;;14.00;;
30149;SDS011;16962;48.646;9.026;2023-04-06T02:53:45;22.50;;;13.60;;
30149;SDS011;16962;48.646;9.026;2023-04-06T02:56:33;24.83;;;13.10;;
30149;SDS011;16962;48.646;9.026;2023-04-06T02:59:20;22.10;;;13.52;;
30149;SDS011;16962;48.646;9.026;2023-04-06T03:02:09;26.80;;;13.75;;
30149;SDS011;16962;48.646;9.026;2023-04-06T03:04:59;22.50;;;13.07;;
30149;SDS011;16962;48.646;9.026;2023-04-06T03:07:46;21.95;;;13.50;;
30149;SDS011;16962;48.646;9.026;2023-04-06T03:10:36;17.90;;;12.10;;
30149;SDS011;16962;48.646;9.026;2023-04-06T03:13:23;28.50;;;13.80;;
30149;SDS011;16962;48.646;9.026;2023-04-06T03:16:11;23.70;;;14.48;;
30149;SDS011;16962;48.646;9.026;2023-04-06T03:18:58;20.65;;;13.20;;
30149;SDS011;16962;48.646;9.026;2023-04-06T03:21:45;23.55;;;14.35;;
30149;SDS011;16962;48.646;9.026;2023-04-06T03:24:33;22.55;;;14.52;;
30149;SDS011;16962;48.646;9.026;2023-04-06T03:27:21;28.25;;;15.32;;
30149;SDS011;16962;48.646;9.026;2023-04-06T03:30:09;25.77;;;14.27;;
30149;SDS011;16962;48.646;9.026;2023-04-06T03:32:56;21.90;;;14.57;;
30149;SDS011;16962;48.646;9.026;2023-04-06T03:35:44;28.75;;;16.10;;
30149;SDS011;16962;48.646;9.026;2023-04-06T03:38:48;27.77;;;15.02;;
30149;SDS011;16962;48.646;9.026;2023-04-06T03:41:36;28.15;;;15.27;;
30149;SDS011;16962;48.646;9.026;2023-04-06T03:44:24;26.90;;;15.25;;
30149;SDS011;16962;48.646;9.026;2023-04-06T03:47:14;24.00;;;14.80;;
30149;SDS011;16962;48.646;9.026;2023-04-06T03:50:02;25.15;;;15.27;;
30149;SDS011;16962;48.646;9.026;2023-04-06T03:52:52;24.70;;;15.70;;
30149;SDS011;16962;48.646;9.026;2023-04-06T03:55:39;22.60;;;14.70;;
30149;SDS011;16962;48.646;9.026;2023-04-06T03:58:28;27.08;;;16.55;;
30149;SDS011;16962;48.646;9.026;2023-04-06T04:01:19;27.77;;;15.70;;
30149;SDS011;16962;48.646;9.026;2023-04-06T04:04:07;28.92;;;16.98;;
30149;SDS011;16962;48.646;9.026;2023-04-06T04:06:57;26.20;;;16.00;;
30149;SDS011;16962;48.646;9.026;2023-04-06T04:09:47;27.08;;;16.10;;
30149;SDS011;16962;48.646;9.026;2023-04-06T04:12:36;30.88;;;16.75;;
30149;SDS011;16962;48.646;9.026;2023-04-06T04:15:30;28.48;;;16.73;;
30149;SDS011;16962;48.646;9.026;2023-04-06T04:18:20;28.70;;;15.95;;
30149;SDS011;16962;48.646;9.026;2023-04-06T04:21:10;30.08;;;16.98;;
30149;SDS011;16962;48.646;9.026;2023-04-06T04:24:12;25.48;;;13.23;;
30149;SDS011;16962;48.646;9.026;2023-04-06T04:27:02;26.38;;;16.15;;
30149;SDS011;16962;48.646;9.026;2023-04-06T04:37:38;58.55;;;27.02;;
30149;SDS011;16962;48.646;9.026;2023-04-06T04:40:47;80.88;;;34.97;;
30149;SDS011;16962;48.646;9.026;2023-04-06T05:03:42;31.92;;;16.95;;
30149;SDS011;16962;48.646;9.026;2023-04-06T05:23:49;30.35;;;17.98;;
30149;SDS011;16962;48.646;9.026;2023-04-06T05:28:23;30.05;;;17.55;;
30149;SDS011;16962;48.646;9.026;2023-04-06T05:44:04;29.95;;;17.00;;
30149;SDS011;16962;48.646;9.026;2023-04-06T05:51:13;30.55;;;17.23;;
30149;SDS011;16962;48.646;9.026;2023-04-06T05:54:40;31.63;;;18.35;;
30149;SDS011;16962;48.646;9.026;2023-04-06T05:57:28;31.88;;;17.25;;
30149;SDS011;16962;48.646;9.026;2023-04-06T06:00:15;27.23;;;17.05;;
30149;SDS011;16962;48.646;9.026;2023-04-06T06:03:03;30.15;;;17.08;;
30149;SDS011;16962;48.646;9.026;2023-04-06T06:06:04;31.42;;;17.33;;
30149;SDS011;16962;48.646;9.026;2023-04-06T06:09:02;26.75;;;15.48;;
30149;SDS011;16962;48.646;9.026;2023-04-06T06:12:31;25.85;;;16.08;;
30149;SDS011;16962;48.646;9.026;2023-04-06T07:06:15;19.98;;;13.40;;
30149;SDS011;16962;48.646;9.026;2023-04-06T07:10:14;25.15;;;13.20;;
30149;SDS011;16962;48.646;9.026;2023-04-06T07:13:03;22.52;;;12.15;;
30149;SDS011;16962;48.646;9.026;2023-04-06T07:16:05;17.88;;;11.30;;
30149;SDS011;16962;48.646;9.026;2023-04-06T07:18:55;16.65;;;11.30;;
30149;SDS011;16962;48.646;9.026;2023-04-06T07:21:46;20.95;;;12.52;;
30149;SDS011;16962;48.646;9.026;2023-04-06T07:24:40;17.20;;;10.88;;
30149;SDS011;16962;48.646;9.026;2023-04-06T07:27:27;16.90;;;11.23;;
30149;SDS011;16962;48.646;9.026;2023-04-06T07:30:17;16.33;;;10.75;;
30149;SDS011;16962;48.646;9.026;2023-04-06T07:33:08;19.75;;;11.63;;
30149;SDS011;16962;48.646;9.026;2023-04-06T07:35:56;15.55;;;10.90;;
30149;SDS011;16962;48.646;9.026;2023-04-06T07:38:47;11.57;;;7.93;;
30149;SDS011;16962;48.646;9.026;2023-04-06T07:41:38;15.20;;;9.77;;
30149;SDS011;16962;48.646;9.026;2023-04-06T07:44:26;13.88;;;9.20;;
30149;SDS011;16962;48.646;9.026;2023-04-06T07:47:18;13.38;;;9.38;;
30149;SDS011;16962;48.646;9.026;2023-04-06T07:50:10;15.23;;;9.77;;
30149;SDS011;16962;48.646;9.026;2023-04-06T07:53:31;13.07;;;9.18;;
30149;SDS011;16962;48.646;9.026;2023-04-06T07:56:20;16.40;;;9.50;;
30149;SDS011;16962;48.646;9.026;2023-04-06T07:59:21;16.00;;;9.50;;
30149;SDS011;16962;48.646;9.026;2023-04-06T08:02:09;15.98;;;9.02;;
30149;SDS011;16962;48.646;9.026;2023-04-06T08:04:59;15.73;;;9.60;;
30149;SDS011;16962;48.646;9.026;2023-04-06T08:07:46;15.98;;;9.68;;
30149;SDS011;16962;48.646;9.026;2023-04-06T08:10:35;14.82;;;9.57;;
30149;SDS011;16962;48.646;9.026;2023-04-06T08:13:28;18.38;;;9.68;;
30149;SDS011;16962;48.646;9.026;2023-04-06T08:16:16;12.30;;;8.75;;
30149;SDS011;16962;48.646;9.026;2023-04-06T08:19:07;16.13;;;9.85;;
30149;SDS011;16962;48.646;9.026;2023-04-06T08:22:19;17.52;;;9.73;;
30149;SDS011;16962;48.646;9.026;2023-04-06T08:25:37;15.07;;;9.07;;
30149;SDS011;16962;48.646;9.026;2023-04-06T08:35:57;12.48;;;9.32;;
30149;SDS011;16962;48.646;9.026;2023-04-06T08:38:54;11.95;;;8.75;;
30149;SDS011;16962;48.646;9.026;2023-04-06T08:41:45;14.80;;;8.55;;
30149;SDS011;16962;48.646;9.026;2023-04-06T08:44:38;17.00;;;9.68;;
30149;SDS011;16962;48.646;9.026;2023-04-06T08:47:29;14.30;;;9.80;;
30149;SDS011;16962;48.646;9.026;2023-04-06T08:50:17;13.75;;;9.50;;
30149;SDS011;16962;48.646;9.026;2023-04-06T08:53:13;14.05;;;9.05;;
30149;SDS011;16962;48.646;9.026;2023-04-06T08:56:03;14.93;;;9.05;;
30149;SDS011;16962;48.646;9.026;2023-04-06T08:59:00;12.82;;;8.70;;
30149;SDS011;16962;48.646;9.026;2023-04-06T09:02:03;15.02;;;9.32;;
30149;SDS011;16962;48.646;9.026;2023-04-06T09:05:20;13.85;;;9.10;;
30149;SDS011;16962;48.646;9.026;2023-04-06T09:08:11;11.65;;;8.73;;
30149;SDS011;16962;48.646;9.026;2023-04-06T09:11:18;13.70;;;8.48;;
30149;SDS011;16962;48.646;9.026;2023-04-06T09:14:07;12.70;;;7.78;;
30149;SDS011;16962;48.646;9.026;2023-04-06T09:16:55;7.88;;;6.45;;
30149;SDS011;16962;48.646;9.026;2023-04-06T09:19:46;8.57;;;6.50;;
30149;SDS011;16962;48.646;9.026;2023-04-06T09:22:36;9.13;;;7.30;;
30149;SDS011;16962;48.646;9.026;2023-04-06T09:25:27;10.88;;;6.85;;
30149;SDS011;16962;48.646;9.026;2023-04-06T09:28:25;12.57;;;7.30;;
30149;SDS011;16962;48.646;9.026;2023-04-06T09:35:49;9.85;;;6.25;;
30149;SDS011;16962;48.646;9.026;2023-04-06T09:39:12;8.00;;;6.00;;
30149;SDS011;16962;48.646;9.026;2023-04-06T09:45:17;10.05;;;6.20;;
30149;SDS011;16962;48.646;9.026;2023-04-06T09:48:40;10.02;;;6.20;;
30149;SDS011;16962;48.646;9.026;2023-04-06T09:51:48;7.47;;;5.35;;
30149;SDS011;16962;48.646;9.026;2023-04-06T09:55:08;10.77;;;6.72;;
30149;SDS011;16962;48.646;9.026;2023-04-06T09:58:09;10.13;;;6.20;;
30149;SDS011;16962;48.646;9.026;2023-04-06T10:03:56;7.47;;;5.63;;
30149;SDS011;16962;48.646;9.026;2023-04-06T10:07:01;6.80;;;6.03;;
30149;SDS011;16962;48.646;9.026;2023-04-06T10:09:52;9.60;;;6.30;;
30149;SDS011;16962;48.646;9.026;2023-04-06T10:12:41;9.90;;;6.20;;
30149;SDS011;16962;48.646;9.026;2023-04-06T10:15:47;7.57;;;6.28;;
30149;SDS011;16962;48.646;9.026;2023-04-06T10:18:35;10.43;;;7.18;;
30149;SDS011;16962;48.646;9.026;2023-04-06T10:21:26;8.45;;;6.25;;
30149;SDS011;16962;48.646;9.026;2023-04-06T10:24:20;10.45;;;6.65;;
30149;SDS011;16962;48.646;9.026;2023-04-06T10:27:07;7.85;;;5.93;;
30149;SDS011;16962;48.646;9.026;2023-04-06T10:30:15;9.27;;;6.45;;
30149;SDS011;16962;48.646;9.026;2023-04-06T10:34:23;10.45;;;7.20;;
30149;SDS011;16962;48.646;9.026;2023-04-06T10:37:52;8.82;;;6.28;;
30149;SDS011;16962;48.646;9.026;2023-04-06T10:40:50;12.32;;;6.53;;
30149;SDS011;16962;48.646;9.026;2023-04-06T10:43:40;10.05;;;7.55;;
30149;SDS011;16962;48.646;9.026;2023-04-06T10:46:29;8.88;;;6.97;;
30149;SDS011;16962;48.646;9.026;2023-04-06T10:49:29;10.50;;;6.20;;
30149;SDS011;16962;48.646;9.026;2023-04-06T10:52:22;8.90;;;6.20;;
30149;SDS011;16962;48.646;9.026;2023-04-06T10:55:10;8.93;;;6.38;;
30149;SDS011;16962;48.646;9.026;2023-04-06T10:58:07;9.55;;;6.65;;
30149;SDS011;16962;48.646;9.026;2023-04-06T11:00:55;10.57;;;6.80;;
30149;SDS011;16962;48.646;9.026;2023-04-06T11:03:43;8.15;;;6.65;;
30149;SDS011;16962;48.646;9.026;2023-04-06T11:07:01;9.45;;;7.07;;
30149;SDS011;16962;48.646;9.026;2023-04-06T11:09:49;10.70;;;7.07;;
30149;SDS011;16962;48.646;9.026;2023-04-06T11:12:59;9.68;;;7.00;;
30149;SDS011;16962;48.646;9.026;2023-04-06T11:15:47;7.85;;;5.95;;
30149;SDS011;16962;48.646;9.026;2023-04-06T11:18:36;9.75;;;6.00;;
30149;SDS011;16962;48.646;9.026;2023-04-06T11:21:48;7.53;;;6.15;;
30149;SDS011;16962;48.646;9.026;2023-04-06T11:24:36;8.90;;;6.90;;
30149;SDS011;16962;48.646;9.026;2023-04-06T11:27:33;8.75;;;6.32;;
30149;SDS011;16962;48.646;9.026;2023-04-06T11:30:22;9.05;;;6.60;;
30149;SDS011;16962;48.646;9.026;2023-04-06T11:33:19;9.40;;;6.70;;
30149;SDS011;16962;48.646;9.026;2023-04-06T11:36:20;9.05;;;6.63;;
30149;SDS011;16962;48.646;9.026;2023-04-06T11:39:20;9.15;;;5.97;;
30149;SDS011;16962;48.646;9.026;2023-04-06T11:42:28;10.00;;;6.95;;
30149;SDS011;16962;48.646;9.026;2023-04-06T11:45:24;8.45;;;5.88;;
30149;SDS011;16962;48.646;9.026;2023-04-06T11:48:22;8.75;;;6.47;;
30149;SDS011;16962;48.646;9.026;2023-04-06T11:51:23;8.25;;;6.38;;
30149;SDS011;16962;48.646;9.026;2023-04-06T11:54:46;8.68;;;6.25;;
30149;SDS011;16962;48.646;9.026;2023-04-06T11:57:38;7.88;;;6.13;;
30149;SDS011;16962;48.646;9.026;2023-04-06T12:00:27;8.50;;;6.78;;
30149;SDS011;16962;48.646;9.026;2023-04-06T12:03:34;10.18;;;6.53;;
30149;SDS011;16962;48.646;9.026;2023-04-06T12:10:28;8.93;;;6.40;;
30149;SDS011;16962;48.646;9.026;2023-04-06T12:14:18;8.23;;;7.28;;
30149;SDS011;16962;48.646;9.026;2023-04-06T12:17:49;8.75;;;6.70;;
30149;SDS011;16962;48.646;9.026;2023-04-06T12:21:15;10.27;;;7.75;;
30149;SDS011;16962;48.646;9.026;2023-04-06T12:24:06;11.82;;;6.93;;
30149;SDS011;16962;48.646;9.026;2023-04-06T12:27:19;11.43;;;7.45;;
30149;SDS011;16962;48.646;9.026;2023-04-06T12:30:11;8.18;;;6.07;;
30149;SDS011;16962;48.646;9.026;2023-04-06T12:33:00;7.88;;;5.43;;
30149;SDS011;16962;48.646;9.026;2023-04-06T12:36:12;10.90;;;5.88;;
30149;SDS011;16962;48.646;9.026;2023-04-06T12:39:49;9.80;;;4.65;;
30149;SDS011;16962;48.646;9.026;2023-04-06T12:43:07;7.15;;;5.25;;
30149;SDS011;16962;48.646;9.026;2023-04-06T12:50:16;7.07;;;4.95;;
30149;SDS011;16962;48.646;9.026;2023-04-06T12:53:34;6.72;;;5.22;;
30149;SDS011;16962;48.646;9.026;2023-04-06T13:00:08;7.90;;;5.43;;
30149;SDS011;16962;48.646;9.026;2023-04-06T13:03:12;22.73;;;13.45;;
30149;SDS011;16962;48.646;9.026;2023-04-06T13:06:17;5.05;;;4.40;;
30149;SDS011;16962;48.646;9.026;2023-04-06T13:09:39;7.18;;;5.05;;
30149;SDS011;16962;48.646;9.026;2023-04-06T13:12:29;5.03;;;4.18;;
30149;SDS011;16962;48.646;9.026;2023-04-06T13:15:18;6.37;;;5.13;;
30149;SDS011;16962;48.646;9.026;2023-04-06T13:18:06;6.03;;;4.70;;
30149;SDS011;16962;48.646;9.026;2023-04-06T13:20:55;8.10;;;4.72;;
30149;SDS011;16962;48.646;9.026;2023-04-06T13:23:43;7.20;;;5.07;;
30149;SDS011;16962;48.646;9.026;2023-04-06T13:26:35;9.65;;;5.50;;
30149;SDS011;16962;48.646;9.026;2023-04-06T13:29:23;7.13;;;5.30;;
30149;SDS011;16962;48.646;9.026;2023-04-06T13:32:27;9.38;;;5.40;;
30149;SDS011;16962;48.646;9.026;2023-04-06T13:35:48;7.63;;;5.20;;
30149;SDS011;16962;48.646;9.026;2023-04-06T13:38:36;7.20;;;4.65;;
30149;SDS011;16962;48.646;9.026;2023-04-06T13:42:11;8.18;;;5.50;;
30149;SDS011;16962;48.646;9.026;2023-04-06T13:45:51;7.53;;;5.40;;
30149;SDS011;16962;48.646;9.026;2023-04-06T13:48:46;7.15;;;4.90;;
30149;SDS011;16962;48.646;9.026;2023-04-06T13:51:41;9.15;;;5.65;;
30149;SDS011;16962;48.646;9.026;2023-04-06T13:54:28;9.48;;;6.35;;
30149;SDS011;16962;48.646;9.026;2023-04-06T13:57:40;6.90;;;5.20;;
30149;SDS011;16962;48.646;9.026;2023-04-06T14:03:54;8.93;;;6.45;;
30149;SDS011;16962;48.646;9.026;2023-04-06T14:06:44;9.80;;;5.55;;
30149;SDS011;16962;48.646;9.026;2023-04-06T14:09:33;8.02;;;4.93;;
30149;SDS011;16962;48.646;9.026;2023-04-06T14:16:42;7.45;;;5.38;;
30149;SDS011;16962;48.646;9.026;2023-04-06T14:24:22;7.80;;;5.80;;
30149;SDS011;16962;48.646;9.026;2023-04-06T14:31:16;7.78;;;5.40;;
30149;SDS011;16962;48.646;9.026;2023-04-06T14:35:15;8.23;;;6.10;;
30149;SDS011;16962;48.646;9.026;2023-04-06T14:38:43;12.15;;;6.03;;
30149;SDS011;16962;48.646;9.026;2023-04-06T14:41:45;10.70;;;5.97;;
30149;SDS011;16962;48.646;9.026;2023-04-06T14:44:39;9.18;;;5.88;;
30149;SDS011;16962;48.646;9.026;2023-04-06T14:47:34;10.60;;;6.80;;
30149;SDS011;16962;48.646;9.026;2023-04-06T14:50:30;11.48;;;5.78;;
30149;SDS011;16962;48.646;9.026;2023-04-06T14:53:25;10.13;;;6.15;;
30149;SDS011;16962;48.646;9.026;2023-04-06T14:56:18;10.00;;;6.80;;
30149;SDS011;16962;48.646;9.026;2023-04-06T14:59:13;12.52;;;6.20;;
30149;SDS011;16962;48.646;9.026;2023-04-06T15:02:01;10.50;;;6.93;;
30149;SDS011;16962;48.646;9.026;2023-04-06T15:04:52;12.13;;;6.95;;
30149;SDS011;16962;48.646;9.026;2023-04-06T15:11:52;10.70;;;6.25;;
30149;SDS011;16962;48.646;9.026;2023-04-06T15:31:19;11.55;;;7.10;;
30149;SDS011;16962;48.646;9.026;2023-04-06T15:54:45;12.63;;;6.03;;
30149;SDS011;16962;48.646;9.026;2023-04-06T16:09:51;9.38;;;5.80;;
30149;SDS011;16962;48.646;9.026;2023-04-06T16:25:01;11.93;;;6.65;;
30149;SDS011;16962;48.646;9.026;2023-04-06T17:12:30;12.98;;;7.97;;
30149;SDS011;16962;48.646;9.026;2023-04-06T17:15:34;12.27;;;7.55;;
30149;SDS011;16962;48.646;9.026;2023-04-06T18:23:06;9.93;;;5.35;;
30149;SDS011;16962;48.646;9.026;2023-04-06T18:26:00;6.38;;;4.40;;
30149;SDS011;16962;48.646;9.026;2023-04-06T18:28:47;7.25;;;3.90;;
30149;SDS011;16962;48.646;9.026;2023-04-06T18:31:48;5.70;;;3.33;;
30149;SDS011;16962;48.646;9.026;2023-04-06T18:35:08;3.83;;;2.90;;
30149;SDS011;16962;48.646;9.026;2023-04-06T18:37:59;4.35;;;3.05;;
30149;SDS011;16962;48.646;9.026;2023-04-06T18:44:20;7.03;;;3.15;;
30149;SDS011;16962;48.646;9.026;2023-04-06T18:50:53;3.88;;;2.78;;
30149;SDS011;16962;48.646;9.026;2023-04-06T18:57:34;7.13;;;4.38;;
30149;SDS011;16962;48.646;9.026;2023-04-06T19:13:48;6.80;;;4.18;;
30149;SDS011;16962;48.646;9.026;2023-04-06T19:16:36;8.40;;;4.72;;
30149;SDS011;16962;48.646;9.026;2023-04-06T19:19:26;6.05;;;3.90;;
30149;SDS011;16962;48.646;9.026;2023-04-06T19:25:25;4.88;;;3.95;;
30149;SDS011;16962;48.646;9.026;2023-04-06T19:28:21;5.57;;;3.60;;
30149;SDS011;16962;48.646;9.026;2023-04-06T19:31:09;5.28;;;3.92;;
30149;SDS011;16962;48.646;9.026;2023-04-06T19:37:18;9.27;;;3.65;;
30149;SDS011;16962;48.646;9.026;2023-04-06T19:40:20;8.20;;;5.03;;
30149;SDS011;16962;48.646;9.026;2023-04-06T19:43:08;6.75;;;4.50;;
30149;SDS011;16962;48.646;9.026;2023-04-06T19:46:05;11.00;;;5.18;;
30149;SDS011;16962;48.646;9.026;2023-04-06T19:48:54;9.90;;;6.45;;
30149;SDS011;16962;48.646;9.026;2023-04-06T19:51:45;9.50;;;5.90;;
30149;SDS011;16962;48.646;9.026;2023-04-06T19:54:33;7.95;;;6.00;;
30149;SDS011;16962;48.646;9.026;2023-04-06T19:57:29;8.52;;;5.95;;
30149;SDS011;16962;48.646;9.026;2023-04-06T20:00:28;11.18;;;6.20;;
30149;SDS011;16962;48.646;9.026;2023-04-06T20:03:34;8.57;;;6.13;;
30149;SDS011;16962;48.646;9.026;2023-04-06T20:06:24;8.80;;;6.68;;
30149;SDS011;16962;48.646;9.026;2023-04-06T20:09:14;9.38;;;6.57;;
30149;SDS011;16962;48.646;9.026;2023-04-06T20:12:31;13.88;;;7.20;;
30149;SDS011;16962;48.646;9.026;2023-04-06T20:15:24;11.73;;;6.65;;
30149;SDS011;16962;48.646;9.026;2023-04-06T20:18:20;9.43;;;6.90;;
30149;SDS011;16962;48.646;9.026;2023-04-06T20:21:18;9.93;;;6.47;;
30149;SDS011;16962;48.646;9.026;2023-04-06T20:24:08;10.02;;;7.10;;
30149;SDS011;16962;48.646;9.026;2023-04-06T20:26:57;8.40;;;6.80;;
30149;SDS011;16962;48.646;9.026;2023-04-06T20:30:01;11.35;;;7.65;;
30149;SDS011;16962;48.646;9.026;2023-04-06T20:33:19;10.52;;;7.00;;
30149;SDS011;16962;48.646;9.026;2023-04-06T20:36:19;15.02;;;7.35;;
30149;SDS011;16962;48.646;9.026;2023-04-06T20:39:11;11.73;;;7.90;;
30149;SDS011;16962;48.646;9.026;2023-04-06T20:42:06;12.13;;;8.63;;
30149;SDS011;16962;48.646;9.026;2023-04-06T20:45:04;12.10;;;8.30;;
30149;SDS011;16962;48.646;9.026;2023-04-06T20:47:54;13.35;;;8.32;;
30149;SDS011;16962;48.646;9.026;2023-04-06T20:50:46;10.48;;;6.68;;
30149;SDS011;16962;48.646;9.026;2023-04-06T20:56:43;12.55;;;8.35;;
30149;SDS011;16962;48.646;9.026;2023-04-06T20:59:35;13.52;;;8.05;;
30149;SDS011;16962;48.646;9.026;2023-04-06T21:02:24;14.77;;;9.10;;
30149;SDS011;16962;48.646;9.026;2023-04-06T21:05:20;14.15;;;8.38;;
30149;SDS011;16962;48.646;9.026;2023-04-06T21:08:10;16.75;;;9.45;;
30149;SDS011;16962;48.646;9.026;2023-04-06T21:11:00;14.70;;;9.98;;
30149;SDS011;16962;48.646;9.026;2023-04-06T21:13:50;13.63;;;9.82;;
30149;SDS011;16962;48.646;9.026;2023-04-06T21:16:40;15.93;;;10.85;;
30149;SDS011;16962;48.646;9.026;2023-04-06T21:19:27;16.35;;;11.25;;
30149;SDS011;16962;48.646;9.026;2023-04-06T21:22:25;11.55;;;8.05;;
30149;SDS011;16962;48.646;9.026;2023-04-06T21:25:16;18.65;;;12.60;;
30149;SDS011;16962;48.646;9.026;2023-04-06T21:28:04;16.65;;;12.43;;
30149;SDS011;16962;48.646;9.026;2023-04-06T21:31:06;20.05;;;13.07;;
30149;SDS011;16962;48.646;9.026;2023-04-06T21:34:34;18.38;;;12.70;;
30149;SDS011;16962;48.646;9.026;2023-04-06T21:37:54;19.77;;;13.57;;
30149;SDS011;16962;48.646;9.026;2023-04-06T21:40:44;19.67;;;13.48;;
30149;SDS011;16962;48.646;9.026;2023-04-06T21:43:42;20.95;;;14.10;;
30149;SDS011;16962;48.646;9.026;2023-04-06T21:46:41;24.38;;;14.93;;
30149;SDS011;16962;48.646;9.026;2023-04-06T21:53:46;21.27;;;14.43;;
30149;SDS011;16962;48.646;9.026;2023-04-06T22:00:21;23.48;;;13.85;;
30149;SDS011;16962;48.646;9.026;2023-04-06T22:03:28;24.30;;;14.45;;
30149;SDS011;16962;48.646;9.026;2023-04-06T22:06:19;21.20;;;14.23;;
30149;SDS011;16962;48.646;9.026;2023-04-06T22:09:49;19.25;;;13.50;;
30149;SDS011;16962;48.646;9.026;2023-04-06T22:12:42;23.52;;;15.02;;
30149;SDS011;16962;48.646;9.026;2023-04-06T22:15:35;23.77;;;14.68;;
30149;SDS011;16962;48.646;9.026;2023-04-06T22:18:30;23.63;;;15.23;;
30149;SDS011;16962;48.646;9.026;2023-04-06T22:21:19;22.58;;;14.88;;
30149;SDS011;16962;48.646;9.026;2023-04-06T22:24:24;22.52;;;15.10;;
30149;SDS011;16962;48.646;9.026;2023-04-06T22:27:12;24.35;;;15.45;;
30149;SDS011;16962;48.646;9.026;2023-04-06T22:30:02;22.92;;;14.55;;
30149;SDS011;16962;48.646;9.026;2023-04-06T22:33:30;25.42;;;16.17;;
30149;SDS011;16962;48.646;9.026;2023-04-06T22:44:35;26.17;;;15.25;;
30149;SDS011;16962;48.646;9.026;2023-04-06T22:48:02;24.17;;;15.70;;
30149;SDS011;16962;48.646;9.026;2023-04-06T23:11:34;24.25;;;14.50;;
30149;SDS011;16962;48.646;9.026;2023-04-06T23:36:15;25.23;;;14.63;;
